createdAt,value
2022-10-22T00:01:11.715Z,97047.94
2022-10-22T00:03:14.310Z,97042.88
2022-10-22T00:05:16.927Z,97036.22
2022-10-22T00:07:19.933Z,97032.09
2022-10-22T00:09:22.500Z,97039.19
2022-10-22T00:11:25.153Z,97034.94
2022-10-22T00:13:28.182Z,97034.88
2022-10-22T00:15:30.781Z,97030.81
2022-10-22T00:17:34.744Z,97029.13
2022-10-22T00:19:38.076Z,97035.63
2022-10-22T00:21:40.779Z,97038.91
2022-10-22T00:23:46.275Z,97035.53
2022-10-22T00:25:49.196Z,97034.94
2022-10-22T00:27:51.818Z,97034.88
2022-10-22T00:29:54.495Z,97029.53
2022-10-22T00:31:57.497Z,97032.16
2022-10-22T00:34:02.328Z,97024.03
2022-10-22T00:36:05.365Z,97024.22
2022-10-22T00:38:07.941Z,97023.19
2022-10-22T00:40:12.136Z,97014.38
2022-10-22T00:42:19.195Z,97003.56
2022-10-22T00:45:01.100Z,96996.91
2022-10-22T00:47:03.846Z,96990.06
2022-10-22T00:49:07.961Z,96977.63
2022-10-22T00:51:11.068Z,96988.22
2022-10-22T00:53:17.291Z,96977.19
2022-10-22T00:55:21.627Z,96975.78
2022-10-22T00:57:24.735Z,96986.28
2022-10-22T00:59:27.384Z,96998.97
2022-10-22T01:01:32.313Z,97021.72
2022-10-22T01:03:35.022Z,97042.75
2022-10-22T01:05:44.341Z,97038.97
2022-10-22T01:07:49.491Z,97031.53
2022-10-22T01:10:02.152Z,97033.31
2022-10-22T01:12:13.540Z,97031.59
2022-10-22T01:14:22.927Z,97038.53
2022-10-22T01:16:33.756Z,97041.16
2022-10-22T01:18:44.575Z,97040.41
2022-10-22T01:20:59.794Z,97042.69
2022-10-22T01:23:17.328Z,97038.53
2022-10-22T01:25:30.949Z,97045.97
2022-10-22T01:27:43.453Z,97050.56
2022-10-22T01:29:51.777Z,97054.69
2022-10-22T01:31:59.344Z,97047.09
2022-10-22T01:34:04.366Z,97058.44
2022-10-22T01:36:08.272Z,97054.44
2022-10-22T01:38:15.940Z,97046.66
2022-10-22T01:40:20.781Z,97042.25
2022-10-22T01:42:24.550Z,97036.59
2022-10-22T01:44:28.834Z,97037.88
2022-10-22T01:46:33.549Z,97023.00
2022-10-22T01:48:52.127Z,97012.06
2022-10-22T01:51:15.157Z,97000.00
2022-10-22T01:53:26.443Z,96982.72
2022-10-22T01:55:34.552Z,96964.66
2022-10-22T01:57:45.239Z,96951.16
2022-10-22T01:59:55.605Z,96942.69
2022-10-22T02:02:08.374Z,96948.47
2022-10-22T02:04:19.769Z,96944.63
2022-10-22T02:06:25.853Z,96946.56
2022-10-22T02:08:32.474Z,96958.06
2022-10-22T02:10:38.371Z,96963.84
2022-10-22T02:12:44.509Z,96967.38
2022-10-22T02:14:50.277Z,96965.94
2022-10-22T02:16:52.978Z,96965.66
2022-10-22T02:19:01.607Z,96979.84
2022-10-22T02:21:04.466Z,96982.91
2022-10-22T02:23:07.183Z,97000.31
2022-10-22T02:25:10.729Z,97009.38
2022-10-22T02:27:25.859Z,97010.47
2022-10-22T02:29:35.899Z,97006.34
2022-10-22T02:31:41.575Z,97021.19
2022-10-22T02:33:48.476Z,97029.31
2022-10-22T02:35:53.341Z,97034.75
2022-10-22T02:37:58.038Z,97046.81
2022-10-22T02:40:00.592Z,97047.97
2022-10-22T02:42:03.945Z,97049.19
2022-10-22T02:44:10.374Z,97043.41
2022-10-22T02:46:13.361Z,97035.56
2022-10-22T02:48:16.067Z,97038.34
2022-10-22T02:50:18.692Z,97036.69
2022-10-22T02:52:22.616Z,97045.31
2022-10-22T02:54:25.223Z,97053.75
2022-10-22T02:56:30.541Z,97052.41
2022-10-22T02:58:33.179Z,97061.03
2022-10-22T03:00:35.777Z,97061.94
2022-10-22T03:02:38.420Z,97063.69
2022-10-22T03:04:40.994Z,97061.09
2022-10-22T03:06:44.097Z,97051.66
2022-10-22T03:08:48.232Z,97054.53
2022-10-22T03:10:50.841Z,97056.13
2022-10-22T03:12:53.454Z,97052.72
2022-10-22T03:14:56.077Z,97060.75
2022-10-22T03:16:58.664Z,97055.81
2022-10-22T03:19:01.943Z,97042.59
2022-10-22T03:21:08.858Z,97038.38
2022-10-22T03:23:12.393Z,97027.78
2022-10-22T03:25:21.912Z,97021.97
2022-10-22T03:27:24.564Z,97012.84
2022-10-22T03:29:28.459Z,97012.66
2022-10-22T03:31:31.056Z,97010.72
2022-10-22T03:33:33.617Z,97001.34
2022-10-22T03:35:44.541Z,96990.03
2022-10-22T03:37:47.248Z,96981.38
2022-10-22T03:39:50.055Z,96987.19
2022-10-22T03:41:54.626Z,96975.38
2022-10-22T03:43:57.673Z,96976.97
2022-10-22T03:46:00.252Z,96968.16
2022-10-22T03:48:02.929Z,96954.84
2022-10-22T03:50:07.236Z,96964.44
2022-10-22T03:52:12.122Z,96974.75
2022-10-22T03:54:14.781Z,96978.44
2022-10-22T03:56:17.326Z,96983.59
2022-10-22T03:58:21.315Z,96990.53
2022-10-22T04:00:23.951Z,96989.59
2022-10-22T04:02:26.536Z,96989.06
2022-10-22T04:04:29.340Z,96996.44
2022-10-22T04:06:32.034Z,97002.63
2022-10-22T04:08:35.217Z,96998.16
2022-10-22T04:10:37.813Z,96993.91
2022-10-22T04:12:40.389Z,97009.63
2022-10-22T04:14:44.307Z,97006.91
2022-10-22T04:16:46.903Z,97006.25
2022-10-22T04:18:51.365Z,97009.72
2022-10-22T04:20:53.935Z,97008.19
2022-10-22T04:22:56.539Z,97002.94
2022-10-22T04:24:59.125Z,97003.97
2022-10-22T04:27:01.736Z,97006.50
2022-10-22T04:29:04.433Z,96995.16
2022-10-22T04:31:12.213Z,97010.88
2022-10-22T04:33:14.805Z,97016.97
2022-10-22T04:35:17.630Z,97017.06
2022-10-22T04:37:20.673Z,97012.81
2022-10-22T04:39:23.425Z,97007.59
2022-10-22T04:41:28.198Z,97007.03
2022-10-22T04:43:30.829Z,97016.56
2022-10-22T04:45:34.008Z,97019.00
2022-10-22T04:47:38.135Z,97013.84
2022-10-22T04:49:41.416Z,97007.41
2022-10-22T04:51:43.960Z,97008.81
2022-10-22T04:53:47.457Z,97009.84
2022-10-22T04:55:50.101Z,97016.84
2022-10-22T04:57:52.673Z,97010.06
2022-10-22T04:59:55.322Z,97011.94
2022-10-22T05:01:57.887Z,97028.31
2022-10-22T05:04:03.635Z,97031.59
2022-10-22T05:06:06.672Z,97034.28
2022-10-22T05:08:09.266Z,97040.19
2022-10-22T05:10:11.849Z,97042.00
2022-10-22T05:12:14.483Z,97036.69
2022-10-22T05:14:18.728Z,97040.25
2022-10-22T05:16:21.302Z,97041.50
2022-10-22T05:18:23.903Z,97043.41
2022-10-22T05:20:27.812Z,97044.09
2022-10-22T05:22:30.373Z,97052.66
2022-10-22T05:24:36.723Z,97055.81
2022-10-22T05:26:39.346Z,97048.66
2022-10-22T05:28:42.092Z,97067.59
2022-10-22T05:30:54.019Z,97072.97
2022-10-22T05:32:56.613Z,97075.13
2022-10-22T05:34:59.187Z,97084.66
2022-10-22T05:37:03.154Z,97079.94
2022-10-22T05:39:06.610Z,97081.88
2022-10-22T05:41:14.018Z,97091.50
2022-10-22T05:43:16.595Z,97089.72
2022-10-22T05:45:19.245Z,97095.09
2022-10-22T05:47:21.804Z,97100.34
2022-10-22T05:49:24.402Z,97105.53
2022-10-22T05:51:28.391Z,97109.97
2022-10-22T05:53:32.936Z,97094.47
2022-10-22T05:55:37.468Z,97091.84
2022-10-22T05:57:40.913Z,97081.47
2022-10-22T05:59:43.574Z,97092.69
2022-10-22T06:01:46.271Z,97089.31
2022-10-22T06:03:49.779Z,97088.50
2022-10-22T06:05:52.347Z,97096.41
2022-10-22T06:07:55.474Z,97105.28
2022-10-22T06:10:00.384Z,97101.88
2022-10-22T06:12:03.424Z,97106.28
2022-10-22T06:14:06.306Z,97120.22
2022-10-22T06:16:08.897Z,97127.16
2022-10-22T06:18:12.197Z,97136.00
2022-10-22T06:20:15.865Z,97142.88
2022-10-22T06:22:18.420Z,97144.56
2022-10-22T06:24:21.014Z,97152.25
2022-10-22T06:26:24.995Z,97153.19
2022-10-22T06:28:28.769Z,97157.56
2022-10-22T06:30:31.379Z,97146.16
2022-10-22T06:32:33.987Z,97153.97
2022-10-22T06:34:36.595Z,97154.72
2022-10-22T06:36:39.393Z,97159.03
2022-10-22T06:38:42.653Z,97164.28
2022-10-22T06:40:45.238Z,97162.50
2022-10-22T06:42:49.125Z,97174.50
2022-10-22T06:44:51.785Z,97184.16
2022-10-22T06:46:54.535Z,97178.91
2022-10-22T06:48:59.010Z,97176.25
2022-10-22T06:51:03.556Z,97182.38
2022-10-22T06:53:06.116Z,97184.16
2022-10-22T06:55:09.355Z,97192.31
2022-10-22T06:57:11.945Z,97196.78
2022-10-22T06:59:15.899Z,97193.31
2022-10-22T07:01:21.640Z,97198.50
2022-10-22T07:03:24.290Z,97201.94
2022-10-22T07:05:26.906Z,97200.25
2022-10-22T07:07:29.479Z,97196.69
2022-10-22T07:09:32.064Z,97195.91
2022-10-22T07:11:41.185Z,97197.31
2022-10-22T07:13:44.557Z,97204.97
2022-10-22T07:15:53.709Z,97210.13
2022-10-22T07:17:56.293Z,97208.50
2022-10-22T07:19:58.856Z,97210.84
2022-10-22T07:22:01.745Z,97213.22
2022-10-22T07:24:04.771Z,97217.38
2022-10-22T07:26:08.569Z,97210.38
2022-10-22T07:28:12.066Z,97214.75
2022-10-22T07:30:15.027Z,97208.09
2022-10-22T07:32:23.569Z,97211.88
2022-10-22T07:34:26.456Z,97209.72
2022-10-22T07:36:29.063Z,97205.81
2022-10-22T07:38:32.483Z,97211.09
2022-10-22T07:40:36.199Z,97217.22
2022-10-22T07:42:38.804Z,97229.44
2022-10-22T07:44:41.417Z,97224.97
2022-10-22T07:46:48.037Z,97232.72
2022-10-22T07:48:53.919Z,97230.63
2022-10-22T07:50:56.793Z,97245.19
2022-10-22T07:52:59.624Z,97245.84
2022-10-22T07:55:02.464Z,97249.94
2022-10-22T07:57:05.043Z,97249.53
2022-10-22T07:59:07.638Z,97249.53
2022-10-22T08:01:10.427Z,97252.84
2022-10-22T08:03:13.757Z,97248.97
2022-10-22T08:05:18.112Z,97259.38
2022-10-22T08:07:20.775Z,97248.13
2022-10-22T08:09:23.379Z,97254.06
2022-10-22T08:11:26.841Z,97248.63
2022-10-22T08:13:31.151Z,97250.25
2022-10-22T08:15:33.850Z,97255.44
2022-10-22T08:17:36.439Z,97250.00
2022-10-22T08:19:39.009Z,97253.41
2022-10-22T08:21:42.964Z,97254.25
2022-10-22T08:23:45.592Z,97253.41
2022-10-22T08:25:48.154Z,97249.84
2022-10-22T08:27:50.768Z,97247.91
2022-10-22T08:29:53.340Z,97251.28
2022-10-22T08:31:56.015Z,97246.81
2022-10-22T08:33:58.633Z,97248.34
2022-10-22T08:36:01.249Z,97250.03
2022-10-22T08:38:05.189Z,97254.09
2022-10-22T08:40:08.612Z,97253.94
2022-10-22T08:42:31.993Z,97258.28
2022-10-22T08:44:59.295Z,97257.25
2022-10-22T08:47:21.407Z,97267.56
2022-10-22T08:49:29.921Z,97261.13
2022-10-22T08:51:35.331Z,97268.84
2022-10-22T08:53:45.490Z,97262.22
2022-10-22T08:55:49.818Z,97262.72
2022-10-22T08:58:00.570Z,97259.22
2022-10-22T09:00:07.761Z,97263.78
2022-10-22T09:02:28.268Z,97265.31
2022-10-22T09:04:41.567Z,97264.28
2022-10-22T09:06:44.371Z,97272.50
2022-10-22T09:08:48.845Z,97274.00
2022-10-22T09:10:55.963Z,97275.03
2022-10-22T09:12:58.587Z,97267.78
2022-10-22T09:15:01.189Z,97277.28
2022-10-22T09:17:14.432Z,97272.69
2022-10-22T09:19:26.123Z,97268.47
2022-10-22T09:21:35.532Z,97278.91
2022-10-22T09:23:50.025Z,97278.31
2022-10-22T09:25:55.410Z,97275.75
2022-10-22T09:27:59.181Z,97279.44
2022-10-22T09:30:02.507Z,97281.25
2022-10-22T09:32:05.476Z,97284.72
2022-10-22T09:34:08.072Z,97281.34
2022-10-22T09:36:14.939Z,97288.94
2022-10-22T09:38:21.074Z,97292.53
2022-10-22T09:40:24.248Z,97292.44
2022-10-22T09:42:28.257Z,97289.38
2022-10-22T09:44:34.397Z,97300.91
2022-10-22T09:46:43.960Z,97299.31
2022-10-22T09:48:50.859Z,97305.28
2022-10-22T09:51:00.313Z,97302.19
2022-10-22T09:53:12.723Z,97300.75
2022-10-22T09:55:17.876Z,97308.75
2022-10-22T09:57:23.538Z,97311.94
2022-10-22T09:59:30.549Z,97315.06
2022-10-22T10:01:35.187Z,97314.97
2022-10-22T10:03:37.762Z,97318.00
2022-10-22T10:05:44.064Z,97319.19
2022-10-22T10:07:47.392Z,97325.97
2022-10-22T10:09:51.442Z,97319.78
2022-10-22T10:12:00.887Z,97320.78
2022-10-22T10:14:12.078Z,97325.31
2022-10-22T10:16:35.433Z,97322.69
2022-10-22T10:18:54.511Z,97320.53
2022-10-22T10:21:05.517Z,97322.19
2022-10-22T10:23:21.754Z,97324.91
2022-10-22T10:25:42.898Z,97334.59
2022-10-22T10:27:54.641Z,97334.78
2022-10-22T10:30:01.239Z,97338.38
2022-10-22T10:32:24.737Z,97338.91
2022-10-22T10:34:40.788Z,97333.38
2022-10-22T10:36:50.059Z,97335.00
2022-10-22T10:38:59.247Z,97343.53
2022-10-22T10:41:14.011Z,97340.34
2022-10-22T10:43:22.476Z,97345.44
2022-10-22T10:45:33.492Z,97345.91
2022-10-22T10:47:55.790Z,97347.22
2022-10-22T10:50:15.061Z,97350.41
2022-10-22T10:52:27.496Z,97348.63
2022-10-22T10:54:44.777Z,97351.91
2022-10-22T10:56:52.822Z,97345.53
2022-10-22T10:59:02.957Z,97350.03
2022-10-22T11:01:17.048Z,97349.47
2022-10-22T11:03:55.986Z,97342.31
2022-10-22T11:06:03.021Z,97341.75
2022-10-22T11:08:11.880Z,97342.63
2022-10-22T11:10:25.259Z,97342.81
2022-10-22T11:12:32.747Z,97342.41
2022-10-22T11:14:47.128Z,97341.50
2022-10-22T11:16:56.393Z,97342.72
2022-10-22T11:19:04.366Z,97339.91
2022-10-22T11:21:17.554Z,97338.19
2022-10-22T11:23:29.177Z,97343.09
2022-10-22T11:25:35.629Z,97333.22
2022-10-22T11:27:43.185Z,97339.91
2022-10-22T11:29:53.258Z,97340.44
2022-10-22T11:31:57.069Z,97336.31
2022-10-22T11:34:32.164Z,97337.63
2022-10-22T11:36:33.369Z,97332.75
2022-10-22T11:38:36.734Z,97330.22
2022-10-22T11:40:45.012Z,97332.38
2022-10-22T11:42:51.281Z,97326.53
2022-10-22T11:45:02.569Z,97322.22
2022-10-22T11:47:16.601Z,97327.75
2022-10-22T11:49:27.975Z,97320.16
2022-10-22T11:51:35.320Z,97329.00
2022-10-22T11:53:39.753Z,97323.75
2022-10-22T11:55:48.292Z,97313.84
2022-10-22T11:57:51.013Z,97318.53
2022-10-22T11:59:57.331Z,97321.47
2022-10-22T12:01:59.901Z,97311.97
2022-10-22T12:04:21.966Z,97320.53
2022-10-22T12:06:26.053Z,97316.31
2022-10-22T12:08:30.536Z,97320.50
2022-10-22T12:10:37.341Z,97309.41
2022-10-22T12:12:40.918Z,97308.84
2022-10-22T12:14:56.070Z,97310.31
2022-10-22T12:17:03.788Z,97310.50
2022-10-22T12:19:14.677Z,97300.88
2022-10-22T12:21:17.712Z,97306.91
2022-10-22T12:23:25.924Z,97314.25
2022-10-22T12:25:35.778Z,97304.69
2022-10-22T12:27:40.469Z,97305.88
2022-10-22T12:29:43.476Z,97298.34
2022-10-22T12:31:48.078Z,97291.53
2022-10-22T12:33:57.492Z,97294.34
2022-10-22T12:36:04.047Z,97291.94
2022-10-22T12:38:14.250Z,97293.25
2022-10-22T12:40:18.518Z,97293.53
2022-10-22T12:42:23.782Z,97293.47
2022-10-22T12:44:26.448Z,97297.63
2022-10-22T12:46:31.480Z,97297.19
2022-10-22T12:48:40.117Z,97289.28
2022-10-22T12:50:45.692Z,97296.31
2022-10-22T12:52:49.260Z,97290.66
2022-10-22T12:54:54.755Z,97289.72
2022-10-22T12:57:00.392Z,97289.75
2022-10-22T12:59:08.731Z,97287.22
2022-10-22T13:01:13.087Z,97285.53
2022-10-22T13:03:29.395Z,97286.25
2022-10-22T13:05:38.821Z,97284.47
2022-10-22T13:07:44.001Z,97287.13
2022-10-22T13:09:48.661Z,97282.88
2022-10-22T13:11:54.410Z,97279.84
2022-10-22T13:14:04.249Z,97293.78
2022-10-22T13:16:22.757Z,97280.50
2022-10-22T13:18:26.965Z,97279.03
2022-10-22T13:20:29.567Z,97278.19
2022-10-22T13:22:34.638Z,97288.72
2022-10-22T13:24:49.854Z,97278.94
2022-10-22T13:26:55.315Z,97280.72
2022-10-22T13:28:59.274Z,97282.38
2022-10-22T13:31:10.714Z,97281.66
2022-10-22T13:33:26.138Z,97282.19
2022-10-22T13:35:32.020Z,97280.31
2022-10-22T13:37:35.565Z,97283.66
2022-10-22T13:39:38.194Z,97276.28
2022-10-22T13:41:41.520Z,97272.50
2022-10-22T13:43:44.174Z,97277.38
2022-10-22T13:45:48.878Z,97273.34
2022-10-22T13:47:55.734Z,97284.06
2022-10-22T13:50:00.961Z,97276.88
2022-10-22T13:52:07.525Z,97276.50
2022-10-22T13:54:15.980Z,97274.25
2022-10-22T13:56:20.172Z,97277.25
2022-10-22T13:58:25.153Z,97272.22
2022-10-22T14:00:28.024Z,97277.34
2022-10-22T14:02:30.965Z,97270.53
2022-10-22T14:04:37.177Z,97265.75
2022-10-22T14:06:39.790Z,97266.84
2022-10-22T14:08:43.549Z,97267.22
2022-10-22T14:10:46.557Z,97274.72
2022-10-22T14:12:52.547Z,97271.59
2022-10-22T14:17:00.092Z,97270.81
2022-10-22T14:19:04.249Z,97276.75
2022-10-22T14:21:08.691Z,97266.88
2022-10-22T14:25:23.846Z,97267.50
2022-10-22T14:27:26.431Z,97268.34
2022-10-22T14:29:29.039Z,97268.94
2022-10-22T14:31:32.144Z,97269.16
2022-10-22T14:33:35.168Z,97276.63
2022-10-22T14:35:37.768Z,97278.56
2022-10-22T14:37:42.016Z,97275.81
2022-10-22T14:39:46.633Z,97280.84
2022-10-22T14:41:49.279Z,97279.91
2022-10-22T14:43:54.920Z,97283.84
2022-10-22T14:45:58.693Z,97284.47
2022-10-22T14:48:01.932Z,97282.28
2022-10-22T14:50:05.194Z,97282.28
2022-10-22T14:52:14.189Z,97283.38
2022-10-22T14:54:18.961Z,97279.03
2022-10-22T14:56:22.232Z,97287.09
2022-10-22T14:58:24.890Z,97289.13
2022-10-22T15:00:27.682Z,97290.50
2022-10-22T15:02:30.312Z,97290.16
2022-10-22T15:04:33.151Z,97285.22
2022-10-22T15:06:36.287Z,97286.50
2022-10-22T15:08:39.433Z,97287.19
2022-10-22T15:10:43.825Z,97293.66
2022-10-22T15:12:46.671Z,97290.75
2022-10-22T15:14:49.541Z,97294.09
2022-10-22T15:16:52.120Z,97293.19
2022-10-22T15:18:54.776Z,97292.44
2022-10-22T15:20:59.261Z,97296.88
2022-10-22T15:23:01.909Z,97295.00
2022-10-22T15:25:07.363Z,97295.88
2022-10-22T15:27:14.279Z,97302.78
2022-10-22T15:29:16.850Z,97307.53
2022-10-22T15:31:43.839Z,97302.59
2022-10-22T15:33:46.430Z,97301.13
2022-10-22T15:35:49.006Z,97300.50
2022-10-22T15:37:52.473Z,97301.66
2022-10-22T15:39:55.137Z,97304.50
2022-10-22T15:41:58.585Z,97294.50
2022-10-22T15:44:02.584Z,97300.31
2022-10-22T15:46:14.223Z,97297.38
2022-10-22T15:48:16.826Z,97305.69
2022-10-22T15:50:19.405Z,97293.84
2022-10-22T15:52:22.383Z,97304.81
2022-10-22T15:54:28.145Z,97307.84
2022-10-22T15:56:31.752Z,97305.44
2022-10-22T15:58:34.571Z,97305.84
2022-10-22T16:00:38.532Z,97307.94
2022-10-22T16:02:41.152Z,97308.34
2022-10-22T16:04:43.749Z,97313.31
2022-10-22T16:06:48.664Z,97306.00
2022-10-22T16:08:51.252Z,97316.13
2022-10-22T16:10:53.977Z,97307.66
2022-10-22T16:12:57.557Z,97309.28
2022-10-22T16:15:00.118Z,97317.63
2022-10-22T16:17:04.040Z,97321.69
2022-10-22T16:19:07.260Z,97319.44
2022-10-22T16:21:14.608Z,97319.91
2022-10-22T16:23:19.049Z,97314.91
2022-10-22T16:25:21.801Z,97311.63
2022-10-22T16:27:24.364Z,97318.31
2022-10-22T16:29:27.063Z,97320.13
2022-10-22T16:31:29.761Z,97315.44
2022-10-22T16:33:41.384Z,97320.97
2022-10-22T16:35:49.464Z,97319.50
2022-10-22T16:37:52.084Z,97324.00
2022-10-22T16:39:54.714Z,97325.88
2022-10-22T16:41:57.343Z,97325.22
2022-10-22T16:44:02.392Z,97331.63
2022-10-22T16:46:05.895Z,97331.72
2022-10-22T16:48:08.465Z,97331.81
2022-10-22T16:50:12.571Z,97328.06
2022-10-22T16:52:15.121Z,97342.16
2022-10-22T16:54:17.736Z,97336.22
2022-10-22T16:56:20.480Z,97339.03
2022-10-22T16:58:24.492Z,97340.94
2022-10-22T17:00:27.084Z,97341.94
2022-10-22T17:02:29.756Z,97338.66
2022-10-22T17:04:32.335Z,97343.16
2022-10-22T17:06:36.283Z,97345.13
2022-10-22T17:08:40.318Z,97343.44
2022-10-22T17:10:42.951Z,97347.03
2022-10-22T17:12:45.541Z,97341.00
2022-10-22T17:14:48.125Z,97340.25
2022-10-22T17:16:53.632Z,97342.97
2022-10-22T17:18:57.221Z,97343.91
2022-10-22T17:20:59.880Z,97342.13
2022-10-22T17:23:03.800Z,97346.91
2022-10-22T17:25:13.116Z,97345.47
2022-10-22T17:27:15.781Z,97351.03
2022-10-22T17:29:18.407Z,97353.09
2022-10-22T17:31:22.784Z,97354.34
2022-10-22T17:33:25.482Z,97356.63
2022-10-22T17:37:36.857Z,97354.94
2022-10-22T17:39:40.739Z,97351.47
2022-10-22T17:41:43.383Z,97360.03
2022-10-22T17:45:54.021Z,97354.13
2022-10-22T17:47:57.216Z,97358.91
2022-10-22T17:49:59.891Z,97358.13
2022-10-22T17:52:02.477Z,97361.84
2022-10-22T17:54:07.491Z,97369.06
2022-10-22T17:56:15.617Z,97373.50
2022-10-22T17:58:18.186Z,97373.31
2022-10-22T18:00:21.359Z,97371.53
2022-10-22T18:02:23.934Z,97364.75
2022-10-22T18:04:29.223Z,97357.81
2022-10-22T18:06:32.810Z,97351.72
2022-10-22T18:08:35.598Z,97360.53
2022-10-22T18:10:40.902Z,97364.25
2022-10-22T18:12:44.887Z,97371.09
2022-10-22T18:14:50.221Z,97363.91
2022-10-22T18:16:54.474Z,97369.31
2022-10-22T18:18:58.373Z,97361.53
2022-10-22T18:21:01.515Z,97359.84
2022-10-22T18:23:04.258Z,97356.47
2022-10-22T18:25:07.662Z,97355.78
2022-10-22T18:27:10.245Z,97355.00
2022-10-22T18:29:17.980Z,97352.38
2022-10-22T18:31:22.758Z,97353.41
2022-10-22T18:33:25.760Z,97355.28
2022-10-22T18:35:28.297Z,97350.94
2022-10-22T18:37:31.878Z,97349.25
2022-10-22T18:39:35.611Z,97351.00
2022-10-22T18:41:38.201Z,97346.63
2022-10-22T18:43:40.810Z,97353.63
2022-10-22T18:45:45.235Z,97357.22
2022-10-22T18:47:47.853Z,97348.66
2022-10-22T18:49:51.726Z,97346.03
2022-10-22T18:51:54.355Z,97354.81
2022-10-22T18:54:11.257Z,97353.13
2022-10-22T18:56:19.989Z,97357.53
2022-10-22T18:58:22.636Z,97358.38
2022-10-22T19:00:26.441Z,97360.16
2022-10-22T19:02:30.394Z,97361.94
2022-10-22T19:04:36.864Z,97356.69
2022-10-22T19:06:42.974Z,97362.81
2022-10-22T19:08:51.328Z,97363.78
2022-10-22T19:10:54.240Z,97358.53
2022-10-22T19:12:56.827Z,97357.06
2022-10-22T19:14:59.478Z,97357.94
2022-10-22T19:17:02.273Z,97353.75
2022-10-22T19:19:07.841Z,97355.44
2022-10-22T19:21:10.417Z,97352.06
2022-10-22T19:23:15.041Z,97355.63
2022-10-22T19:25:19.935Z,97350.53
2022-10-22T19:27:22.481Z,97349.59
2022-10-22T19:29:25.064Z,97353.16
2022-10-22T19:31:29.826Z,97351.63
2022-10-22T19:33:32.463Z,97356.94
2022-10-22T19:35:38.431Z,97356.19
2022-10-22T19:37:44.879Z,97354.50
2022-10-22T19:39:50.279Z,97356.25
2022-10-22T19:41:52.842Z,97359.81
2022-10-22T19:43:56.754Z,97359.13
2022-10-22T19:45:59.332Z,97353.19
2022-10-22T19:48:01.927Z,97354.06
2022-10-22T19:50:04.875Z,97352.44
2022-10-22T19:52:08.923Z,97349.13
2022-10-22T19:54:18.354Z,97350.19
2022-10-22T19:56:21.897Z,97353.75
2022-10-22T19:58:24.469Z,97356.53
2022-10-22T20:00:29.308Z,97350.44
2022-10-22T20:02:31.940Z,97342.75
2022-10-22T20:04:34.484Z,97344.50
2022-10-22T20:06:37.053Z,97350.59
2022-10-22T20:08:41.418Z,97348.13
2022-10-22T20:10:44.047Z,97356.94
2022-10-22T20:12:49.652Z,97350.00
2022-10-22T20:14:52.379Z,97348.28
2022-10-22T20:16:54.998Z,97354.38
2022-10-22T20:19:01.245Z,97352.72
2022-10-22T20:21:05.626Z,97349.16
2022-10-22T20:23:08.689Z,97355.25
2022-10-22T20:25:13.660Z,97360.56
2022-10-22T20:27:16.244Z,97357.94
2022-10-22T20:29:19.415Z,97358.78
2022-10-22T20:31:24.093Z,97361.41
2022-10-22T20:33:26.685Z,97354.56
2022-10-22T20:35:29.325Z,97352.00
2022-10-22T20:37:31.979Z,97352.84
2022-10-22T20:39:34.576Z,97355.53
2022-10-22T20:41:40.374Z,97354.69
2022-10-22T20:43:44.764Z,97355.72
2022-10-22T20:45:47.371Z,97356.69
2022-10-22T20:47:51.821Z,97354.31
2022-10-22T20:50:01.205Z,97357.88
2022-10-22T20:52:03.849Z,97361.56
2022-10-22T20:54:08.169Z,97364.28
2022-10-22T20:56:11.110Z,97362.66
2022-10-22T20:58:15.132Z,97361.03
2022-10-22T21:00:18.049Z,97355.94
2022-10-22T21:02:20.612Z,97354.41
2022-10-22T21:04:23.201Z,97364.19
2022-10-22T21:06:26.000Z,97355.72
2022-10-22T21:08:28.559Z,97359.63
2022-10-22T21:10:32.558Z,97362.38
2022-10-22T21:12:35.778Z,97361.75
2022-10-22T21:14:39.717Z,97359.31
2022-10-22T21:16:43.405Z,97362.16
2022-10-22T21:18:46.124Z,97361.56
2022-10-22T21:20:48.683Z,97364.13
2022-10-22T21:22:51.275Z,97358.25
2022-10-22T21:24:53.843Z,97363.50
2022-10-22T21:26:56.407Z,97364.63
2022-10-22T21:28:58.961Z,97357.69
2022-10-22T21:31:03.072Z,97363.78
2022-10-22T21:33:08.553Z,97366.38
2022-10-22T21:35:11.097Z,97364.63
2022-10-22T21:37:13.718Z,97364.47
2022-10-22T21:39:16.293Z,97362.47
2022-10-22T21:41:21.234Z,97362.41
2022-10-22T21:43:23.878Z,97364.94
2022-10-22T21:45:26.508Z,97365.72
2022-10-22T21:47:30.384Z,97362.28
2022-10-22T21:49:33.020Z,97365.03
2022-10-22T21:51:38.082Z,97361.69
2022-10-22T21:53:41.611Z,97355.69
2022-10-22T21:55:44.203Z,97365.34
2022-10-22T21:57:46.758Z,97358.31
2022-10-22T21:59:49.356Z,97366.13
2022-10-22T22:01:51.915Z,97354.84
2022-10-22T22:03:56.372Z,97358.31
2022-10-22T22:05:59.712Z,97357.56
2022-10-22T22:08:02.265Z,97354.06
2022-10-22T22:10:05.663Z,97366.38
2022-10-22T22:12:09.414Z,97363.94
2022-10-22T22:14:12.840Z,97356.97
2022-10-22T22:16:20.317Z,97350.84
2022-10-22T22:18:25.220Z,97344.72
2022-10-22T22:20:29.660Z,97344.41
2022-10-22T22:22:32.281Z,97354.03
2022-10-22T22:24:35.175Z,97357.56
2022-10-22T22:26:37.951Z,97354.09
2022-10-22T22:28:40.736Z,97356.66
2022-10-22T22:30:43.721Z,97346.53
2022-10-22T22:32:46.298Z,97356.28
2022-10-22T22:34:48.911Z,97352.00
2022-10-22T22:36:53.103Z,97352.84
2022-10-22T22:38:56.795Z,97344.06
2022-10-22T22:40:59.788Z,97347.66
2022-10-22T22:43:02.376Z,97339.81
2022-10-22T22:45:05.648Z,97339.06
2022-10-22T22:47:08.272Z,97334.72
2022-10-22T22:49:10.900Z,97333.91
2022-10-22T22:51:13.460Z,97337.34
2022-10-22T22:53:17.394Z,97348.09
2022-10-22T22:55:20.058Z,97342.09
2022-10-22T22:57:22.616Z,97337.00
2022-10-22T22:59:25.229Z,97340.75
2022-10-22T23:01:30.378Z,97338.31
2022-10-22T23:03:33.003Z,97325.31
2022-10-22T23:05:37.233Z,97328.94
2022-10-22T23:07:39.952Z,97329.00
2022-10-22T23:09:46.486Z,97318.66
2022-10-22T23:11:49.371Z,97322.22
2022-10-22T23:13:54.885Z,97316.03
2022-10-22T23:15:57.484Z,97318.81
2022-10-22T23:18:00.049Z,97314.91
2022-10-22T23:20:02.713Z,97307.28
2022-10-22T23:22:05.285Z,97306.44
2022-10-22T23:24:10.145Z,97300.34
2022-10-22T23:26:15.873Z,97300.41
2022-10-22T23:28:18.454Z,97309.06
2022-10-22T23:30:21.231Z,97300.34
2022-10-22T23:32:23.771Z,97306.50
2022-10-22T23:34:26.389Z,97308.28
2022-10-22T23:36:29.605Z,97297.94
2022-10-22T23:38:32.173Z,97294.78
2022-10-22T23:40:34.963Z,97296.59
2022-10-22T23:44:46.362Z,97289.66
2022-10-22T23:46:49.306Z,97295.03
2022-10-22T23:48:53.640Z,97302.00
2022-10-22T23:50:56.195Z,97298.03
2022-10-22T23:52:58.820Z,97291.22
2022-10-22T23:55:01.440Z,97285.97
2022-10-22T23:57:04.079Z,97292.97
2022-10-22T23:59:08.872Z,97292.97
